Time;durP1;ratioP1;P1;durP2;ratioP2;P2;SDS_P1;SDS_P2;PMS_P1;PMS_P2;Temp;Humidity;BMP_temperature;BMP_pressure;BME280_temperature;BME280_humidity;BME280_pressure;Samples;Min_cycle;Max_cycle;Signal;HPM_P1;HPM_P2
2024/01/22 00:01:41;;;;;;;7.07;3.27;;;5.20;99.90;;;;;;4771236;30;20802;-81
2024/01/22 00:04:07;;;;;;;9.53;2.97;;;5.20;99.90;;;;;;4755429;30;20537;-82
2024/01/22 00:06:37;;;;;;;7.77;3.37;;;5.30;99.90;;;;;;4755370;30;20228;-80
2024/01/22 00:09:03;;;;;;;6.57;3.20;;;5.30;99.90;;;;;;4771569;30;20520;-80
2024/01/22 00:11:29;;;;;;;6.97;2.97;;;5.40;99.90;;;;;;4771521;30;20199;-81
2024/01/22 00:13:56;;;;;;;7.00;2.97;;;5.30;99.90;;;;;;4755524;30;20227;-82
2024/01/22 00:16:23;;;;;;;6.47;3.00;;;5.30;99.90;;;;;;4753473;30;20333;-80
2024/01/22 00:18:49;;;;;;;5.30;3.07;;;5.30;99.90;;;;;;4771511;30;20202;-80
2024/01/22 00:21:15;;;;;;;5.10;2.70;;;5.40;99.90;;;;;;4755287;30;20545;-82
2024/01/22 00:23:40;;;;;;;5.80;3.23;;;5.50;99.90;;;;;;4771497;30;20650;-80
2024/01/22 00:26:06;;;;;;;6.73;2.77;;;5.40;99.90;;;;;;4755072;30;20230;-81
2024/01/22 00:28:32;;;;;;;8.23;2.83;;;5.50;99.90;;;;;;4771045;30;20198;-82
2024/01/22 00:30:57;;;;;;;5.93;2.83;;;5.50;99.90;;;;;;4754982;30;20290;-81
2024/01/22 00:33:23;;;;;;;5.57;3.10;;;5.40;99.90;;;;;;4771110;30;20192;-81
2024/01/22 00:35:49;;;;;;;9.70;3.67;;;5.40;99.90;;;;;;4755185;30;20207;-82
2024/01/22 00:38:14;;;;;;;5.10;2.83;;;5.50;99.90;;;;;;4771078;30;20633;-79
2024/01/22 00:40:40;;;;;;;8.20;3.20;;;5.50;99.90;;;;;;4771002;30;20241;-79
2024/01/22 00:43:06;;;;;;;6.47;3.20;;;5.50;99.90;;;;;;4754864;30;20195;-81
2024/01/22 00:45:33;;;;;;;6.13;3.13;;;5.50;99.90;;;;;;4753519;30;20573;-81
2024/01/22 00:47:58;;;;;;;7.80;2.70;;;5.50;99.90;;;;;;4754404;30;20280;-81
2024/01/22 00:50:24;;;;;;;7.10;2.67;;;5.50;99.90;;;;;;4747128;30;20618;-80
2024/01/22 00:52:50;;;;;;;7.23;2.93;;;5.60;99.90;;;;;;4754917;30;20549;-83
2024/01/22 00:55:15;;;;;;;8.43;2.73;;;5.60;99.90;;;;;;4770725;30;20192;-82
2024/01/22 00:57:41;;;;;;;6.10;3.07;;;5.50;99.90;;;;;;4754544;30;20204;-82
2024/01/22 01:00:09;;;;;;;5.63;2.60;;;5.60;99.90;;;;;;4770699;30;20514;-82
2024/01/22 01:02:35;;;;;;;6.07;2.50;;;5.60;99.90;;;;;;4754147;30;20250;-81
2024/01/22 01:05:01;;;;;;;7.03;2.80;;;5.60;99.90;;;;;;4754727;30;20573;-81
2024/01/22 01:07:26;;;;;;;4.87;2.47;;;5.60;99.90;;;;;;4770677;30;20192;-81
2024/01/22 01:09:52;;;;;;;4.53;2.60;;;5.60;99.90;;;;;;4770516;30;20200;-80
2024/01/22 01:12:18;;;;;;;4.53;2.47;;;5.60;99.90;;;;;;4754375;30;20261;-81
2024/01/22 01:14:43;;;;;;;8.30;2.70;;;5.60;99.90;;;;;;4754562;30;20200;-82
2024/01/22 01:17:09;;;;;;;3.87;2.60;;;5.70;99.90;;;;;;4752646;30;20282;-81
2024/01/22 01:19:35;;;;;;;7.27;2.63;;;5.70;99.90;;;;;;4770437;30;20191;-82
2024/01/22 01:22:01;;;;;;;4.60;2.47;;;5.70;99.90;;;;;;4770574;30;20241;-81
2024/01/22 01:24:27;;;;;;;6.50;2.73;;;5.70;99.90;;;;;;4770425;30;20196;-80
2024/01/22 01:26:53;;;;;;;8.70;2.70;;;5.70;99.90;;;;;;4747013;30;20203;-81
2024/01/22 01:29:18;;;;;;;4.17;2.20;;;5.70;99.90;;;;;;4754235;30;20227;-82
2024/01/22 01:31:44;;;;;;;7.40;2.77;;;5.70;99.90;;;;;;4754031;30;20199;-83
2024/01/22 01:34:10;;;;;;;5.13;2.50;;;5.80;99.90;;;;;;4754409;30;20708;-82
2024/01/22 01:36:37;;;;;;;5.17;2.57;;;5.70;99.90;;;;;;4754311;30;20542;-82
2024/01/22 01:39:03;;;;;;;4.87;2.37;;;5.80;99.90;;;;;;4754051;30;20229;-82
2024/01/22 01:41:28;;;;;;;7.03;2.70;;;5.80;99.90;;;;;;4769983;30;20223;-83
2024/01/22 01:43:54;;;;;;;6.37;3.00;;;5.80;99.90;;;;;;5176323;24;20255;-79
2024/01/22 01:46:20;;;;;;;8.13;3.10;;;5.80;99.90;;;;;;4765159;30;20234;-79
2024/01/22 01:48:46;;;;;;;8.60;3.13;;;5.80;99.90;;;;;;4747934;30;20191;-80
2024/01/22 01:51:15;;;;;;;6.17;2.80;;;5.80;99.90;;;;;;4770670;30;20643;-80
2024/01/22 01:53:42;;;;;;;6.37;2.90;;;5.70;99.90;;;;;;4770819;30;20631;-80
2024/01/22 01:56:09;;;;;;;8.90;3.30;;;5.60;99.90;;;;;;4770788;30;20228;-81
2024/01/22 01:58:36;;;;;;;6.40;3.00;;;5.60;99.90;;;;;;4754381;30;20203;-81
2024/01/22 02:01:03;;;;;;;10.37;3.10;;;5.60;99.90;;;;;;4770621;30;20188;-80
2024/01/22 02:03:29;;;;;;;7.13;3.07;;;5.60;99.90;;;;;;4773757;30;20266;-80
2024/01/22 02:05:57;;;;;;;6.97;2.97;;;5.70;99.90;;;;;;4758007;30;20357;-81
2024/01/22 02:08:22;;;;;;;4.70;2.30;;;5.70;99.90;;;;;;4757960;30;20196;-81
2024/01/22 02:10:48;;;;;;;7.07;2.70;;;5.70;99.90;;;;;;4774112;30;20195;-82
2024/01/22 02:13:14;;;;;;;6.87;3.10;;;5.80;99.90;;;;;;4769428;30;20199;-81
2024/01/22 02:15:42;;;;;;;6.43;2.30;;;5.80;99.90;;;;;;4773997;30;20584;-80
2024/01/22 02:18:08;;;;;;;5.93;2.30;;;5.80;99.90;;;;;;4757777;30;20631;-80
2024/01/22 02:20:33;;;;;;;9.83;2.60;;;5.70;99.90;;;;;;4757688;30;20196;-79
2024/01/22 02:23:06;;;;;;;5.43;2.40;;;5.90;99.90;;;;;;4774024;30;20638;-81
2024/01/22 02:25:32;;;;;;;5.30;3.13;;;5.90;99.90;;;;;;4773710;30;20216;-81
2024/01/22 02:27:58;;;;;;;4.73;1.97;;;5.90;99.90;;;;;;4773548;30;20184;-82
2024/01/22 02:30:24;;;;;;;8.23;2.80;;;6.00;99.90;;;;;;4757903;30;20196;-81
2024/01/22 02:32:50;;;;;;;7.47;2.40;;;6.00;99.90;;;;;;4773646;30;20188;-82
2024/01/22 02:35:17;;;;;;;7.47;2.43;;;6.10;99.90;;;;;;4773686;30;20190;-81
2024/01/22 02:37:43;;;;;;;7.60;2.57;;;6.10;99.90;;;;;;4754383;30;20200;-81
2024/01/22 02:40:09;;;;;;;6.83;2.43;;;6.10;99.90;;;;;;4753795;30;20199;-81
2024/01/22 02:42:35;;;;;;;6.70;2.37;;;6.20;99.90;;;;;;4756879;30;20200;-81
2024/01/22 02:45:03;;;;;;;4.30;2.33;;;6.20;99.90;;;;;;4763162;30;20262;-83
2024/01/22 02:47:28;;;;;;;7.43;2.53;;;6.20;99.90;;;;;;4748931;30;20200;-81
2024/01/22 02:49:54;;;;;;;8.53;2.30;;;6.20;99.90;;;;;;4766245;30;20246;-81
2024/01/22 02:52:20;;;;;;;6.13;2.87;;;6.20;99.90;;;;;;4757525;30;20245;-83
2024/01/22 02:54:45;;;;;;;5.37;2.77;;;6.30;99.90;;;;;;4773544;30;20196;-82
2024/01/22 02:57:11;;;;;;;5.50;2.40;;;6.30;99.90;;;;;;4757320;30;20241;-81
2024/01/22 02:59:39;;;;;;;7.30;2.97;;;6.40;99.90;;;;;;4773090;30;20268;-83
2024/01/22 03:02:05;;;;;;;6.70;2.73;;;6.40;99.90;;;;;;4757475;30;20192;-81
2024/01/22 03:04:31;;;;;;;7.93;2.70;;;6.30;99.90;;;;;;4773182;30;20539;-81
2024/01/22 03:06:56;;;;;;;6.53;2.50;;;6.30;99.90;;;;;;4757335;30;20303;-81
2024/01/22 03:09:22;;;;;;;6.30;2.67;;;6.40;99.90;;;;;;4757157;30;20636;-81
2024/01/22 03:11:48;;;;;;;6.90;2.67;;;6.50;99.90;;;;;;4757177;30;20208;-81
2024/01/22 03:14:14;;;;;;;5.00;2.83;;;6.50;99.90;;;;;;4768479;30;20192;-84
2024/01/22 03:16:39;;;;;;;5.50;2.17;;;6.50;99.90;;;;;;4757195;30;20219;-83
2024/01/22 03:19:05;;;;;;;7.03;3.20;;;6.50;99.90;;;;;;4757056;30;20531;-84
2024/01/22 03:21:31;;;;;;;5.33;2.50;;;6.50;99.90;;;;;;4754986;30;20202;-84
2024/01/22 03:23:57;;;;;;;5.53;2.30;;;6.60;99.90;;;;;;4751782;30;20656;-84
2024/01/22 03:26:23;;;;;;;5.80;3.13;;;6.70;99.90;;;;;;4772869;30;20713;-83
2024/01/22 03:28:50;;;;;;;8.63;2.40;;;6.70;99.90;;;;;;4756618;30;20245;-85
2024/01/22 03:31:23;;;;;;;4.70;1.93;;;6.80;99.90;;;;;;4756813;30;20586;-83
2024/01/22 03:33:50;;;;;;;5.47;2.13;;;6.80;99.90;;;;;;4757051;30;20192;-83
2024/01/22 03:36:16;;;;;;;5.47;1.90;;;6.80;99.90;;;;;;4772841;30;20226;-83
2024/01/22 03:38:42;;;;;;;5.27;2.27;;;6.90;99.90;;;;;;4756911;30;20192;-83
2024/01/22 03:41:07;;;;;;;7.57;2.10;;;7.00;99.90;;;;;;4756555;30;20196;-82
2024/01/22 03:43:33;;;;;;;3.67;2.13;;;7.00;99.90;;;;;;4751266;30;20586;-82
2024/01/22 03:45:59;;;;;;;6.07;2.50;;;6.90;99.90;;;;;;4772472;30;20215;-83
2024/01/22 03:48:24;;;;;;;5.43;2.17;;;6.90;99.90;;;;;;4772419;30;20198;-83
2024/01/22 03:50:52;;;;;;;4.27;2.03;;;6.90;99.90;;;;;;4772660;30;20219;-86
2024/01/22 03:53:18;;;;;;;5.60;2.37;;;7.00;99.90;;;;;;4772627;30;20616;-84
2024/01/22 03:55:44;;;;;;;5.90;2.60;;;7.10;99.90;;;;;;4772752;30;20191;-84
2024/01/22 03:58:11;;;;;;;5.50;2.37;;;7.00;99.90;;;;;;4749541;30;20575;-84
2024/01/22 04:00:36;;;;;;;4.83;2.30;;;7.20;99.90;;;;;;4771972;30;20237;-83
2024/01/22 04:03:02;;;;;;;5.27;2.00;;;7.20;99.90;;;;;;4756839;30;20271;-89
2024/01/22 04:05:28;;;;;;;6.17;2.47;;;7.20;99.90;;;;;;4756295;30;20686;-84
2024/01/22 04:07:54;;;;;;;4.93;2.43;;;7.10;99.90;;;;;;4772024;30;20192;-84
2024/01/22 04:10:19;;;;;;;6.33;2.50;;;7.20;99.90;;;;;;4756601;30;20247;-82
2024/01/22 04:12:45;;;;;;;4.97;2.10;;;7.20;99.90;;;;;;4771732;30;20522;-85
2024/01/22 04:15:11;;;;;;;4.83;1.93;;;7.20;99.90;;;;;;4768382;30;20184;-84
2024/01/22 04:17:39;;;;;;;5.03;1.87;;;7.30;99.90;;;;;;4756397;30;20467;-84
2024/01/22 04:20:06;;;;;;;4.50;1.83;;;7.20;99.90;;;;;;4772123;30;20207;-86
2024/01/22 04:22:32;;;;;;;6.07;1.80;;;7.20;99.90;;;;;;4771892;30;20550;-86
2024/01/22 04:24:58;;;;;;;5.07;1.93;;;7.20;99.90;;;;;;4771559;30;20247;-84
2024/01/22 04:27:25;;;;;;;5.67;2.40;;;7.30;99.90;;;;;;4756079;30;20529;-86
2024/01/22 04:29:50;;;;;;;4.93;1.83;;;7.20;99.90;;;;;;4771976;30;20188;-82
2024/01/22 04:32:16;;;;;;;4.50;2.13;;;7.30;99.90;;;;;;4772013;30;20249;-83
2024/01/22 04:34:42;;;;;;;3.53;2.13;;;7.20;99.90;;;;;;4771856;30;20192;-82
2024/01/22 04:37:10;;;;;;;5.07;1.93;;;7.40;99.90;;;;;;4771864;30;20191;-86
2024/01/22 04:39:38;;;;;;;5.47;1.90;;;7.30;99.90;;;;;;4746251;30;20292;-86
2024/01/22 04:42:04;;;;;;;4.70;2.07;;;7.30;99.90;;;;;;4751112;30;20261;-87
2024/01/22 04:44:30;;;;;;;5.83;2.13;;;7.20;99.90;;;;;;4751055;30;20248;-85
2024/01/22 04:47:00;;;;;;;2.83;1.73;;;7.30;99.90;;;;;;4748909;30;20200;-84
2024/01/22 04:49:25;;;;;;;3.47;1.80;;;7.30;99.90;;;;;;4771569;30;20694;-83
2024/01/22 04:51:51;;;;;;;3.90;1.70;;;7.30;99.90;;;;;;4771660;30;20200;-84
2024/01/22 04:54:18;;;;;;;4.80;2.20;;;7.30;99.90;;;;;;4755369;30;20680;-84
2024/01/22 04:56:50;;;;;;;6.70;2.00;;;7.20;99.90;;;;;;4755438;30;20199;-83
2024/01/22 04:59:16;;;;;;;3.77;1.57;;;7.20;99.90;;;;;;4755158;30;20199;-83
2024/01/22 05:01:42;;;;;;;3.80;1.73;;;7.20;99.90;;;;;;4755642;30;20537;-85
2024/01/22 05:04:08;;;;;;;3.43;1.80;;;7.20;99.90;;;;;;4771705;30;20188;-84
2024/01/22 05:06:34;;;;;;;3.97;1.67;;;7.20;99.90;;;;;;4752939;30;20223;-84
2024/01/22 05:08:59;;;;;;;5.30;1.73;;;7.20;99.90;;;;;;4743319;30;20672;-83
2024/01/22 05:11:25;;;;;;;2.83;1.47;;;7.20;99.90;;;;;;4753946;30;20667;-84
2024/01/22 05:13:52;;;;;;;4.47;1.80;;;7.20;99.90;;;;;;4744905;30;20203;-87
2024/01/22 05:16:21;;;;;;;3.33;1.70;;;7.20;99.90;;;;;;4755171;30;20528;-85
2024/01/22 05:18:48;;;;;;;3.63;1.77;;;7.20;99.90;;;;;;4755534;30;20278;-85
2024/01/22 05:21:14;;;;;;;6.07;1.50;;;7.20;99.90;;;;;;4755452;30;20223;-84
2024/01/22 05:23:40;;;;;;;5.07;1.70;;;7.10;99.90;;;;;;4755447;30;20229;-85
2024/01/22 05:26:06;;;;;;;6.20;1.87;;;7.20;99.90;;;;;;4755142;30;20258;-86
2024/01/22 05:28:35;;;;;;;3.90;1.60;;;7.30;99.90;;;;;;4754882;30;20195;-84
2024/01/22 05:31:01;;;;;;;1.97;1.40;;;7.30;99.90;;;;;;4771363;30;20191;-87
2024/01/22 05:33:27;;;;;;;5.97;1.80;;;7.20;99.90;;;;;;4755272;30;20203;-85
2024/01/22 05:35:53;;;;;;;2.17;1.47;;;7.20;99.90;;;;;;4771117;30;20219;-84
2024/01/22 05:38:20;;;;;;;4.60;1.77;;;7.20;99.90;;;;;;4755048;30;20198;-84
2024/01/22 05:40:45;;;;;;;3.77;1.53;;;7.30;99.90;;;;;;4770149;30;20203;-84
2024/01/22 05:43:11;;;;;;;3.37;1.53;;;7.30;99.90;;;;;;4762773;30;20244;-81
2024/01/22 05:45:37;;;;;;;4.20;1.40;;;7.30;99.90;;;;;;4754133;30;20231;-85
2024/01/22 05:48:03;;;;;;;3.17;1.23;;;7.30;99.90;;;;;;4770688;30;20214;-86
2024/01/22 05:50:29;;;;;;;4.53;1.80;;;7.30;99.90;;;;;;4771068;30;20191;-85
2024/01/22 05:52:55;;;;;;;3.97;1.43;;;7.30;99.90;;;;;;4755062;30;20255;-84
2024/01/22 05:55:21;;;;;;;4.67;1.50;;;7.30;99.90;;;;;;4770318;30;20275;-82
2024/01/22 05:57:48;;;;;;;2.67;1.40;;;7.30;99.90;;;;;;4748469;30;20279;-84
2024/01/22 06:00:14;;;;;;;4.03;1.60;;;7.30;99.90;;;;;;4771065;30;20184;-82
2024/01/22 06:02:41;;;;;;;3.77;1.40;;;7.30;99.90;;;;;;4754751;30;20204;-84
2024/01/22 06:05:07;;;;;;;5.60;1.40;;;7.30;99.90;;;;;;4747702;30;20227;-84
2024/01/22 06:07:36;;;;;;;3.33;1.70;;;7.30;99.90;;;;;;4768665;30;20246;-83
2024/01/22 06:10:02;;;;;;;2.93;1.53;;;7.30;99.90;;;;;;4744730;30;20234;-85
2024/01/22 06:12:28;;;;;;;3.67;1.67;;;7.20;99.90;;;;;;4752908;30;20292;-84
2024/01/22 06:14:54;;;;;;;3.13;1.60;;;7.30;99.90;;;;;;4749679;30;20282;-87
2024/01/22 06:17:22;;;;;;;4.97;1.60;;;7.30;99.90;;;;;;4763034;30;20550;-88
2024/01/22 06:19:47;;;;;;;3.13;1.47;;;7.10;99.90;;;;;;4754526;30;20644;-87
2024/01/22 06:22:13;;;;;;;4.53;1.70;;;7.00;99.90;;;;;;4754745;30;20196;-86
2024/01/22 06:24:39;;;;;;;3.97;1.63;;;6.90;99.90;;;;;;4770598;30;20674;-86
2024/01/22 06:27:06;;;;;;;2.67;1.60;;;6.90;99.90;;;;;;4754882;30;20203;-88
2024/01/22 06:29:35;;;;;;;3.70;1.63;;;6.90;99.90;;;;;;4755406;30;20283;-86
2024/01/22 06:32:01;;;;;;;3.33;1.90;;;6.80;99.90;;;;;;4755206;30;20200;-87
2024/01/22 06:34:27;;;;;;;3.53;1.60;;;6.80;99.90;;;;;;4771065;30;20240;-88
2024/01/22 06:36:53;;;;;;;4.40;1.73;;;6.80;99.90;;;;;;4771008;30;20270;-88
2024/01/22 06:39:19;;;;;;;2.23;1.57;;;6.80;99.90;;;;;;4740294;30;20192;-90
2024/01/22 06:41:45;;;;;;;3.27;1.90;;;6.80;99.90;;;;;;4764109;30;20184;-89
2024/01/22 06:44:11;;;;;;;4.97;1.83;;;6.80;99.90;;;;;;4766225;30;20239;-86
2024/01/22 06:46:36;;;;;;;4.93;2.00;;;6.90;99.90;;;;;;4770850;30;20228;-89
2024/01/22 06:49:02;;;;;;;4.50;1.90;;;6.90;99.90;;;;;;4773661;30;20188;-86
2024/01/22 06:51:29;;;;;;;2.37;1.40;;;6.90;99.90;;;;;;4750978;30;20248;-85
2024/01/22 06:53:56;;;;;;;4.97;1.70;;;6.90;99.90;;;;;;4758328;30;20192;-89
2024/01/22 06:56:22;;;;;;;5.77;1.50;;;7.00;99.90;;;;;;4758014;30;20279;-90
2024/01/22 06:58:48;;;;;;;3.60;1.50;;;7.00;99.90;;;;;;4753777;30;20288;-90
2024/01/22 07:01:14;;;;;;;3.23;1.50;;;7.00;99.90;;;;;;4770941;30;20206;-87
2024/01/22 07:03:40;;;;;;;4.80;1.50;;;7.10;99.90;;;;;;4757909;30;20692;-87
2024/01/22 07:06:06;;;;;;;5.43;1.63;;;7.10;99.90;;;;;;4757809;30;20216;-85
2024/01/22 07:08:32;;;;;;;2.10;1.40;;;7.10;99.90;;;;;;4757984;30;20577;-87
2024/01/22 07:11:00;;;;;;;2.83;1.53;;;7.10;99.90;;;;;;4757861;30;20234;-86
2024/01/22 07:13:28;;;;;;;2.17;1.37;;;7.20;99.90;;;;;;4769473;30;20529;-86
2024/01/22 07:15:54;;;;;;;4.20;1.40;;;7.20;99.90;;;;;;4757664;30;20195;-86
2024/01/22 07:18:20;;;;;;;3.97;1.67;;;7.20;99.90;;;;;;4773526;30;20184;-88
2024/01/22 07:20:45;;;;;;;2.83;1.40;;;7.20;99.90;;;;;;4757560;30;20207;-87
2024/01/22 07:23:12;;;;;;;1.47;1.30;;;7.20;99.90;;;;;;4773737;30;20184;-83
2024/01/22 07:25:37;;;;;;;2.07;1.40;;;7.30;99.90;;;;;;4757394;30;20223;-89
2024/01/22 07:28:11;;;;;;;2.90;1.50;;;7.30;99.90;;;;;;4757501;30;20191;-87
2024/01/22 07:30:37;;;;;;;4.37;1.50;;;7.30;99.90;;;;;;4757337;30;20200;-84
2024/01/22 07:33:03;;;;;;;2.23;1.30;;;7.30;99.90;;;;;;4773139;30;20208;-85
2024/01/22 07:35:29;;;;;;;3.33;1.37;;;7.30;99.90;;;;;;4757388;30;20578;-84
2024/01/22 07:37:55;;;;;;;2.30;1.13;;;7.30;99.90;;;;;;4757170;30;20196;-86
2024/01/22 07:40:21;;;;;;;2.20;1.40;;;7.30;99.90;;;;;;4765778;30;20184;-86
2024/01/22 07:42:47;;;;;;;5.13;1.50;;;7.30;99.90;;;;;;4748834;30;20230;-85
2024/01/22 07:45:14;;;;;;;3.77;1.10;;;7.30;99.90;;;;;;4753840;30;20293;-87
2024/01/22 07:47:40;;;;;;;4.67;1.10;;;7.30;99.90;;;;;;4757024;30;20200;-85
2024/01/22 07:50:10;;;;;;;1.80;1.10;;;7.40;99.90;;;;;;4757274;30;20223;-86
2024/01/22 07:52:37;;;;;;;2.27;1.10;;;7.40;99.90;;;;;;4757226;30;20192;-87
2024/01/22 07:55:03;;;;;;;2.50;1.20;;;7.50;99.90;;;;;;4757069;30;20685;-88
2024/01/22 07:57:29;;;;;;;1.93;1.10;;;7.50;99.90;;;;;;4772965;30;20184;-84
2024/01/22 07:59:55;;;;;;;2.03;1.10;;;7.50;99.90;;;;;;4755540;30;20196;-87
2024/01/22 08:02:21;;;;;;;5.03;1.20;;;7.60;99.90;;;;;;4772656;30;20195;-85
2024/01/22 08:04:48;;;;;;;1.50;1.10;;;7.60;99.90;;;;;;4772855;30;20188;-85
2024/01/22 08:07:14;;;;;;;4.33;1.53;;;7.50;99.90;;;;;;4772222;30;20507;-84
2024/01/22 08:09:40;;;;;;;2.20;1.17;;;7.50;99.90;;;;;;4755920;30;20198;-86
2024/01/22 08:12:06;;;;;;;1.47;1.23;;;7.60;99.90;;;;;;4772902;30;20188;-87
2024/01/22 08:14:35;;;;;;;3.10;1.30;;;7.60;99.90;;;;;;4767936;30;20195;-84
2024/01/22 08:17:01;;;;;;;2.50;1.50;;;7.50;99.90;;;;;;4756866;30;20196;-88
2024/01/22 08:19:28;;;;;;;3.63;1.17;;;7.50;99.90;;;;;;4765283;30;20621;-85
2024/01/22 08:21:54;;;;;;;2.30;1.13;;;7.50;99.90;;;;;;4772470;30;20188;-86
2024/01/22 08:24:21;;;;;;;1.73;1.27;;;7.60;99.90;;;;;;4742088;30;20510;-84
2024/01/22 08:26:48;;;;;;;2.53;1.40;;;7.50;99.90;;;;;;4754876;30;20284;-85
2024/01/22 08:29:16;;;;;;;4.10;1.27;;;7.50;99.90;;;;;;4756228;30;20195;-84
2024/01/22 08:31:42;;;;;;;2.07;1.10;;;7.60;99.90;;;;;;4741956;30;20202;-84
2024/01/22 08:34:08;;;;;;;2.93;1.10;;;7.70;99.90;;;;;;4764185;30;20528;-86
2024/01/22 08:36:34;;;;;;;2.33;1.10;;;7.60;99.90;;;;;;4746874;30;20189;-83
2024/01/22 08:39:01;;;;;;;2.60;1.17;;;7.70;99.90;;;;;;4766762;30;20196;-86
2024/01/22 08:41:27;;;;;;;3.43;1.20;;;7.70;99.90;;;;;;4763556;30;20199;-88
2024/01/22 08:43:54;;;;;;;2.60;1.10;;;7.70;99.90;;;;;;4742959;30;20240;-87
2024/01/22 08:46:20;;;;;;;1.50;0.83;;;7.80;99.90;;;;;;4750800;30;20224;-85
2024/01/22 08:48:46;;;;;;;2.73;1.03;;;7.80;99.90;;;;;;4751033;30;20238;-84
2024/01/22 08:51:12;;;;;;;3.30;0.90;;;7.90;99.90;;;;;;4749250;30;20193;-83
2024/01/22 08:53:38;;;;;;;1.97;0.90;;;8.00;99.90;;;;;;4753126;30;20193;-83
2024/01/22 08:56:04;;;;;;;6.83;1.10;;;8.00;99.90;;;;;;4735217;30;20193;-87
2024/01/22 08:58:29;;;;;;;2.00;1.10;;;8.00;99.90;;;;;;4736419;30;20223;-84
2024/01/22 09:00:56;;;;;;;2.17;0.83;;;8.10;99.90;;;;;;4735082;30;20201;-84
2024/01/22 09:03:24;;;;;;;2.17;1.30;;;8.10;99.90;;;;;;4748917;30;20633;-83
2024/01/22 09:05:50;;;;;;;1.47;0.90;;;8.00;99.90;;;;;;4752640;30;20221;-86
2024/01/22 09:08:16;;;;;;;4.13;1.57;;;8.00;99.90;;;;;;4753946;30;20192;-84
2024/01/22 09:10:44;;;;;;;3.53;1.00;;;8.00;99.90;;;;;;4752214;30;20283;-87
2024/01/22 09:13:09;;;;;;;3.77;1.00;;;8.00;99.90;;;;;;4751588;30;20188;-84
2024/01/22 09:15:35;;;;;;;2.23;0.90;;;7.90;99.90;;;;;;4753991;30;20200;-87
2024/01/22 09:18:01;;;;;;;2.57;1.10;;;7.90;99.90;;;;;;4750522;30;20201;-83
2024/01/22 09:20:30;;;;;;;2.17;1.10;;;7.90;99.90;;;;;;4751877;30;20201;-84
2024/01/22 09:22:56;;;;;;;2.57;1.00;;;8.00;99.90;;;;;;4753693;30;20195;-84
2024/01/22 09:25:22;;;;;;;1.40;0.80;;;8.00;99.90;;;;;;4745629;30;20216;-85
2024/01/22 09:27:48;;;;;;;1.30;0.97;;;8.10;99.90;;;;;;4753462;30;20697;-84
2024/01/22 09:30:15;;;;;;;2.10;0.90;;;8.10;99.90;;;;;;4747986;30;20285;-83
2024/01/22 09:32:41;;;;;;;1.23;0.90;;;8.10;99.90;;;;;;4753472;30;20196;-85
2024/01/22 09:35:07;;;;;;;1.00;0.70;;;8.20;99.90;;;;;;4753184;30;20196;-86
2024/01/22 09:37:34;;;;;;;1.80;0.90;;;8.20;99.90;;;;;;4747743;30;20275;-84
2024/01/22 09:40:00;;;;;;;1.90;0.80;;;8.10;99.90;;;;;;4751984;30;20192;-84
2024/01/22 09:42:30;;;;;;;2.80;0.97;;;8.10;99.90;;;;;;4752155;30;20220;-82
2024/01/22 09:44:57;;;;;;;1.00;0.63;;;8.10;99.90;;;;;;4752013;30;20552;-84
2024/01/22 09:47:34;;;;;;;2.30;0.80;;;8.00;99.90;;;;;;4750120;30;20358;-84
2024/01/22 09:50:02;;;;;;;2.70;0.80;;;8.10;99.90;;;;;;4749712;30;20675;-82
2024/01/22 09:52:30;;;;;;;1.77;0.70;;;8.00;99.90;;;;;;4745699;30;20548;-85
2024/01/22 09:54:58;;;;;;;1.90;0.80;;;8.00;99.90;;;;;;4749991;30;20204;-84
2024/01/22 09:57:27;;;;;;;3.10;0.90;;;8.00;99.90;;;;;;4744785;30;20208;-83
2024/01/22 09:59:53;;;;;;;1.47;0.80;;;8.00;99.90;;;;;;4748148;30;20273;-82
2024/01/22 10:02:19;;;;;;;1.43;0.80;;;8.00;99.90;;;;;;4750879;30;20208;-85
2024/01/22 10:04:46;;;;;;;2.27;1.00;;;8.00;99.90;;;;;;4747442;30;20219;-83
2024/01/22 10:07:14;;;;;;;1.47;0.67;;;8.00;99.90;;;;;;4753226;30;20200;-84
2024/01/22 10:09:41;;;;;;;2.13;0.90;;;8.10;99.90;;;;;;4750880;30;20189;-85
2024/01/22 10:12:09;;;;;;;0.97;0.67;;;8.10;99.90;;;;;;4747560;30;20193;-86
2024/01/22 10:14:35;;;;;;;1.53;0.70;;;8.10;99.90;;;;;;4737206;30;20193;-86
2024/01/22 10:17:21;;;;;;;1.40;0.87;;;8.10;99.90;;;;;;4748456;30;20244;-83
2024/01/22 10:19:48;;;;;;;1.30;0.77;;;8.20;99.90;;;;;;4748404;30;20204;-84
2024/01/22 10:22:19;;;;;;;1.87;0.80;;;8.10;99.90;;;;;;4751620;30;20656;-84
2024/01/22 10:25:05;;;;;;;2.00;0.93;;;8.20;99.90;;;;;;4755253;30;20227;-82
2024/01/22 10:27:32;;;;;;;1.60;0.90;;;8.10;99.90;;;;;;4749885;30;20246;-82
2024/01/22 10:30:09;;;;;;;1.53;0.80;;;8.10;99.90;;;;;;4755007;30;20196;-81
2024/01/22 10:32:36;;;;;;;1.20;0.77;;;8.10;99.90;;;;;;4756178;30;20187;-83
2024/01/22 10:35:03;;;;;;;2.27;1.03;;;8.10;99.90;;;;;;4742626;30;20189;-84
2024/01/22 10:37:29;;;;;;;1.10;0.80;;;8.10;99.90;;;;;;4753758;30;20197;-82
2024/01/22 10:40:08;;;;;;;2.13;1.00;;;8.10;99.90;;;;;;4755288;30;20307;-81
2024/01/22 10:42:34;;;;;;;1.30;0.70;;;8.10;99.90;;;;;;4752716;30;20251;-82
2024/01/22 10:45:03;;;;;;;1.87;0.93;;;8.20;99.90;;;;;;4737278;30;20232;-85
2024/01/22 10:47:31;;;;;;;2.20;0.97;;;8.20;99.90;;;;;;4746297;30;20540;-81
2024/01/22 10:50:00;;;;;;;1.57;0.90;;;8.30;99.90;;;;;;4754899;30;20254;-80
2024/01/22 10:52:28;;;;;;;1.17;0.73;;;8.40;99.90;;;;;;4754994;30;20192;-82
2024/01/22 10:54:53;;;;;;;1.90;1.00;;;8.40;99.90;;;;;;4756377;30;20181;-82
2024/01/22 10:57:41;;;;;;;3.53;0.73;;;8.50;99.90;;;;;;4751822;30;20238;-87
2024/01/22 11:00:09;;;;;;;1.33;0.90;;;8.50;99.90;;;;;;4749040;30;20272;-84
2024/01/22 11:02:42;;;;;;;2.30;1.00;;;8.60;99.90;;;;;;4754834;30;20185;-82
2024/01/22 11:05:15;;;;;;;1.57;0.87;;;8.60;99.90;;;;;;4754883;30;20212;-83
2024/01/22 11:07:41;;;;;;;2.20;0.87;;;8.60;99.90;;;;;;4755669;30;20204;-83
2024/01/22 11:10:10;;;;;;;4.10;1.03;;;8.60;99.90;;;;;;4754702;30;20191;-81
2024/01/22 11:12:45;;;;;;;0.73;0.67;;;8.50;99.90;;;;;;4754180;30;20626;-84
2024/01/22 11:15:11;;;;;;;1.97;0.83;;;8.50;99.90;;;;;;4755749;30;20648;-83
2024/01/22 11:17:37;;;;;;;2.20;1.00;;;8.60;99.90;;;;;;4754397;30;20191;-82
2024/01/22 11:20:20;;;;;;;6.10;0.97;;;8.60;99.90;;;;;;4748368;30;20216;-81
2024/01/22 11:23:01;;;;;;;1.83;1.00;;;8.50;99.90;;;;;;4740270;30;20188;-82
2024/01/22 11:25:28;;;;;;;2.50;1.00;;;8.60;99.90;;;;;;4754170;30;20223;-83
2024/01/22 11:28:09;;;;;;;1.97;1.00;;;8.60;99.90;;;;;;4750134;30;20236;-84
2024/01/22 11:30:36;;;;;;;1.90;0.77;;;8.60;99.90;;;;;;4754117;30;20203;-84
2024/01/22 11:33:23;;;;;;;1.70;0.80;;;8.70;99.90;;;;;;4748679;30;20197;-81
2024/01/22 11:35:49;;;;;;;2.77;1.20;;;8.70;99.90;;;;;;4740231;30;20258;-84
2024/01/22 11:38:35;;;;;;;2.53;1.00;;;8.70;99.90;;;;;;4753965;30;20198;-85
2024/01/22 11:41:01;;;;;;;2.83;1.00;;;8.70;99.90;;;;;;4754005;30;20192;-85
2024/01/22 11:43:26;;;;;;;3.43;1.20;;;8.70;99.90;;;;;;4759941;30;20301;-81
2024/01/22 11:46:14;;;;;;;3.00;1.20;;;8.80;99.90;;;;;;4756998;30;20231;-86
2024/01/22 11:48:40;;;;;;;2.53;1.13;;;8.80;99.90;;;;;;4756489;30;20195;-86
2024/01/22 11:51:06;;;;;;;2.50;1.10;;;8.80;99.90;;;;;;4756344;30;20191;-83
2024/01/22 11:53:33;;;;;;;1.07;0.80;;;8.90;99.90;;;;;;4756873;30;20199;-83
2024/01/22 11:56:06;;;;;;;2.57;0.80;;;8.90;99.90;;;;;;4771348;30;20191;-85
2024/01/22 11:58:33;;;;;;;2.60;1.23;;;9.00;99.90;;;;;;4771409;30;20205;-84
2024/01/22 12:01:06;;;;;;;2.97;0.98;;;8.90;99.90;;;;;;4751648;30;20196;-84
2024/01/22 12:03:37;;;;;;;1.43;0.90;;;8.90;99.90;;;;;;4755584;30;20624;-86
2024/01/22 12:06:08;;;;;;;1.97;0.80;;;9.00;99.90;;;;;;4756582;30;20226;-84
2024/01/22 12:08:34;;;;;;;1.60;0.73;;;9.00;99.90;;;;;;4756843;30;20695;-87
2024/01/22 12:11:08;;;;;;;3.90;1.10;;;9.00;99.90;;;;;;4756751;30;20202;-85
2024/01/22 12:13:37;;;;;;;2.87;1.00;;;8.90;99.90;;;;;;4756146;30;20191;-84
2024/01/22 12:16:03;;;;;;;3.27;1.00;;;8.90;99.90;;;;;;4756737;30;20279;-86
2024/01/22 12:18:29;;;;;;;3.83;0.93;;;8.80;99.90;;;;;;4757798;30;20320;-84
2024/01/22 12:20:54;;;;;;;2.72;0.90;;;8.90;99.90;;;;;;4756442;30;20188;-84
2024/01/22 12:23:32;;;;;;;2.80;0.87;;;8.90;99.90;;;;;;4756519;30;20196;-83
2024/01/22 12:25:59;;;;;;;4.03;1.00;;;8.90;99.90;;;;;;4754946;30;20219;-85
2024/01/22 12:28:26;;;;;;;2.33;0.90;;;8.90;99.90;;;;;;4754065;30;20188;-84
2024/01/22 12:31:01;;;;;;;2.00;0.87;;;8.90;99.90;;;;;;4772461;30;20251;-85
2024/01/22 12:33:30;;;;;;;3.53;1.10;;;8.90;99.90;;;;;;4772446;30;20566;-84
2024/01/22 12:36:10;;;;;;;1.60;0.70;;;8.90;99.90;;;;;;4749201;30;20198;-86
2024/01/22 12:38:46;;;;;;;2.77;0.80;;;9.00;99.90;;;;;;4756410;30;20625;-86
2024/01/22 12:41:14;;;;;;;2.20;0.70;;;9.00;99.90;;;;;;4756210;30;20291;-83
2024/01/22 12:43:40;;;;;;;2.73;0.87;;;9.00;99.90;;;;;;4763887;30;20570;-86
2024/01/22 12:46:14;;;;;;;3.00;1.10;;;9.00;99.90;;;;;;4770798;30;20246;-85
2024/01/22 12:48:44;;;;;;;1.63;0.90;;;9.00;99.90;;;;;;4748608;30;20223;-84
2024/01/22 12:51:10;;;;;;;2.43;0.90;;;8.90;99.90;;;;;;4755946;30;20629;-84
2024/01/22 12:53:36;;;;;;;4.30;1.20;;;8.90;99.90;;;;;;4756045;30;20200;-86
2024/01/22 12:56:05;;;;;;;2.63;0.80;;;8.80;99.90;;;;;;4754146;30;20207;-84
2024/01/22 12:58:30;;;;;;;2.23;0.97;;;8.70;99.90;;;;;;4739479;30;20291;-84